createdAt,value
2019-02-15T00:00:34.382Z,48.60
2019-02-15T00:03:03.977Z,48.40
2019-02-15T00:05:32.247Z,48.60
2019-02-15T00:08:00.559Z,48.60
2019-02-15T00:10:29.205Z,47.30
2019-02-15T00:12:57.458Z,47.80
2019-02-15T00:15:25.770Z,47.90
2019-02-15T00:17:55.908Z,48.30
2019-02-15T00:20:25.821Z,47.70
2019-02-15T00:22:55.680Z,48.00
2019-02-15T00:25:24.195Z,48.10
2019-02-15T00:27:52.435Z,47.30
2019-02-15T00:30:20.690Z,47.40
2019-02-15T00:32:49.093Z,47.70
2019-02-15T00:35:17.490Z,47.40
2019-02-15T00:37:45.725Z,47.50
2019-02-15T00:40:14.045Z,48.20
2019-02-15T00:42:42.275Z,47.80
2019-02-15T00:45:12.140Z,48.40
2019-02-15T00:47:54.381Z,48.10
2019-02-15T00:50:41.762Z,48.10
2019-02-15T00:53:20.981Z,47.90
2019-02-15T00:55:53.619Z,48.40
2019-02-15T00:58:23.814Z,48.70
2019-02-15T01:00:53.692Z,48.60
2019-02-15T01:03:27.002Z,48.00
2019-02-15T01:06:15.219Z,48.00
2019-02-15T01:08:57.234Z,48.30
2019-02-15T01:11:27.109Z,48.00
2019-02-15T01:13:55.337Z,47.70
2019-02-15T01:16:24.162Z,47.40
2019-02-15T01:18:52.419Z,47.10
2019-02-15T01:21:20.905Z,47.50
2019-02-15T01:23:56.614Z,47.20
2019-02-15T01:26:26.575Z,47.20
2019-02-15T01:28:56.504Z,46.90
2019-02-15T01:31:26.617Z,47.10
2019-02-15T01:37:13.263Z,47.40
2019-02-15T01:39:46.010Z,47.80
2019-02-15T01:42:26.534Z,48.10
2019-02-15T01:45:02.164Z,49.20
2019-02-15T01:47:36.815Z,49.00
2019-02-15T01:50:09.421Z,48.80
2019-02-15T01:52:37.715Z,49.40
2019-02-15T01:55:06.926Z,49.50
2019-02-15T01:57:35.161Z,49.40
2019-02-15T02:00:04.669Z,49.60
2019-02-15T02:02:33.982Z,49.70
2019-02-15T02:05:02.210Z,50.10
2019-02-15T02:07:30.445Z,50.40
2019-02-15T02:09:59.476Z,50.50
2019-02-15T02:12:27.706Z,50.60
2019-02-15T02:14:55.939Z,50.70
2019-02-15T02:17:24.347Z,51.10
2019-02-15T02:19:52.583Z,51.40
2019-02-15T02:22:42.962Z,51.70
2019-02-15T02:25:11.367Z,51.80
2019-02-15T02:27:40.296Z,52.20
2019-02-15T02:30:11.413Z,52.40
2019-02-15T02:32:39.664Z,52.50
2019-02-15T02:35:09.088Z,52.60
2019-02-15T02:37:38.637Z,52.70
2019-02-15T02:40:08.419Z,53.10
2019-02-15T02:42:36.920Z,52.90
2019-02-15T02:45:07.452Z,53.00
2019-02-15T02:47:35.705Z,53.00
2019-02-15T02:50:05.595Z,52.60
2019-02-15T02:52:34.090Z,52.70
2019-02-15T02:55:02.347Z,52.70
2019-02-15T02:57:30.583Z,53.00
2019-02-15T02:59:58.979Z,53.40
2019-02-15T03:02:27.211Z,53.60
2019-02-15T03:04:58.214Z,54.20
2019-02-15T03:07:26.723Z,54.30
2019-02-15T03:09:54.956Z,54.50
2019-02-15T03:12:23.174Z,54.50
2019-02-15T03:14:51.728Z,54.70
2019-02-15T03:17:19.986Z,54.60
2019-02-15T03:19:48.256Z,54.70
2019-02-15T03:22:16.598Z,54.70
2019-02-15T03:24:44.843Z,55.50
2019-02-15T03:27:13.087Z,55.30
2019-02-15T03:29:41.593Z,55.50
2019-02-15T03:32:09.844Z,55.90
2019-02-15T03:34:38.113Z,55.90
2019-02-15T03:37:24.648Z,57.00
2019-02-15T03:39:54.543Z,56.80
2019-02-15T03:42:23.329Z,57.90
2019-02-15T03:44:51.742Z,57.90
2019-02-15T03:47:21.638Z,57.90
2019-02-15T03:49:49.885Z,58.30
2019-02-15T03:52:18.287Z,59.10
2019-02-15T03:54:46.519Z,58.20
2019-02-15T03:57:14.779Z,58.80
2019-02-15T03:59:44.896Z,59.00
2019-02-15T04:02:13.159Z,59.00
2019-02-15T04:04:41.460Z,58.90
2019-02-15T04:07:09.915Z,58.80
2019-02-15T04:09:38.162Z,59.20
2019-02-15T04:12:06.401Z,59.50
2019-02-15T04:14:34.789Z,58.60
2019-02-15T04:17:03.129Z,59.30
2019-02-15T04:19:31.353Z,59.10
2019-02-15T04:21:59.759Z,58.80
2019-02-15T04:24:28.020Z,58.80
2019-02-15T04:26:56.326Z,59.00
2019-02-15T04:29:27.483Z,59.20
2019-02-15T04:31:55.737Z,59.30
2019-02-15T04:34:25.276Z,59.00
2019-02-15T04:36:53.528Z,59.00
2019-02-15T04:39:23.514Z,58.80
2019-02-15T04:41:51.807Z,59.10
2019-02-15T04:44:20.046Z,59.10
2019-02-15T04:46:50.008Z,59.30
2019-02-15T04:49:18.321Z,59.50
2019-02-15T04:51:46.566Z,59.40
2019-02-15T04:54:14.970Z,59.50
2019-02-15T04:56:43.206Z,59.70
2019-02-15T04:59:11.427Z,59.40
2019-02-15T05:01:50.110Z,58.90
2019-02-15T05:04:18.331Z,58.70
2019-02-15T05:06:46.822Z,58.60
2019-02-15T05:09:16.338Z,59.00
2019-02-15T05:11:44.614Z,59.70
2019-02-15T05:14:12.841Z,59.50
2019-02-15T05:16:41.435Z,59.60
2019-02-15T05:19:09.658Z,59.90
2019-02-15T05:21:37.895Z,60.00
2019-02-15T05:24:06.380Z,59.90
2019-02-15T05:26:34.621Z,59.90
2019-02-15T05:29:02.848Z,59.90
2019-02-15T05:31:31.511Z,59.60
2019-02-15T05:34:00.186Z,59.90
2019-02-15T05:36:28.524Z,59.90
2019-02-15T05:39:15.829Z,60.90
2019-02-15T05:41:50.931Z,60.80
2019-02-15T05:44:20.268Z,60.80
2019-02-15T05:46:49.650Z,60.90
2019-02-15T05:49:21.126Z,60.80
2019-02-15T05:51:50.010Z,60.80
2019-02-15T05:54:19.006Z,60.50
2019-02-15T05:56:47.775Z,61.50
2019-02-15T05:59:16.050Z,60.60
2019-02-15T06:01:44.305Z,61.30
2019-02-15T06:04:13.021Z,60.60
2019-02-15T06:06:41.239Z,61.50
2019-02-15T06:09:12.368Z,61.40
2019-02-15T06:11:41.338Z,62.40
2019-02-15T06:14:09.822Z,61.60
2019-02-15T06:16:38.125Z,62.00
2019-02-15T06:19:08.687Z,62.40
2019-02-15T06:21:36.948Z,61.80
2019-02-15T06:24:05.242Z,61.70
2019-02-15T06:26:33.965Z,61.10
2019-02-15T06:29:02.253Z,61.00
2019-02-15T06:31:30.562Z,60.70
2019-02-15T06:33:59.821Z,60.50
2019-02-15T06:36:31.062Z,60.40
2019-02-15T06:38:59.335Z,60.10
2019-02-15T06:41:28.274Z,60.40
2019-02-15T06:43:59.188Z,59.70
2019-02-15T06:46:28.237Z,60.10
2019-02-15T06:48:56.493Z,60.70
2019-02-15T06:51:26.554Z,60.70
2019-02-15T06:53:54.786Z,61.00
2019-02-15T06:56:23.053Z,60.70
2019-02-15T06:58:53.948Z,61.20
2019-02-15T07:01:26.885Z,61.90
2019-02-15T07:04:02.809Z,62.00
2019-02-15T07:06:33.362Z,62.00
2019-02-15T07:09:04.593Z,62.10
2019-02-15T07:11:35.223Z,62.10
2019-02-15T07:14:03.726Z,63.30
2019-02-15T07:16:31.982Z,62.10
2019-02-15T07:19:00.442Z,62.90
2019-02-15T07:21:29.355Z,63.20
2019-02-15T07:23:57.614Z,62.80
2019-02-15T07:26:27.220Z,63.10
2019-02-15T07:28:58.303Z,61.60
2019-02-15T07:31:26.570Z,60.00
2019-02-15T07:33:54.838Z,59.20
2019-02-15T07:36:24.122Z,58.70
2019-02-15T07:38:52.422Z,58.40
2019-02-15T07:41:20.663Z,57.70
2019-02-15T07:43:49.372Z,57.90
2019-02-15T07:46:17.622Z,57.10
2019-02-15T07:48:46.709Z,57.20
2019-02-15T07:51:15.131Z,56.60
2019-02-15T07:53:43.387Z,56.90
2019-02-15T07:56:11.670Z,56.80
2019-02-15T07:58:40.039Z,56.10
2019-02-15T08:01:08.277Z,55.20
2019-02-15T08:03:36.539Z,53.40
2019-02-15T08:06:04.923Z,54.00
2019-02-15T08:08:33.160Z,52.90
2019-02-15T08:11:01.423Z,53.00
2019-02-15T08:13:30.431Z,52.50
2019-02-15T08:15:58.669Z,53.60
2019-02-15T08:18:26.960Z,52.10
2019-02-15T08:20:55.568Z,49.90
2019-02-15T08:23:23.800Z,50.10
2019-02-15T08:25:52.047Z,49.00
2019-02-15T08:28:20.607Z,48.50
2019-02-15T08:30:49.390Z,47.90
2019-02-15T08:33:17.623Z,46.90
2019-02-15T08:35:46.039Z,49.30
2019-02-15T08:38:14.334Z,49.70
2019-02-15T08:40:44.280Z,50.20
2019-02-15T08:43:12.923Z,49.60
2019-02-15T08:45:41.582Z,50.10
2019-02-15T08:48:10.360Z,49.90
2019-02-15T08:50:38.746Z,49.50
2019-02-15T08:53:07.004Z,51.00
2019-02-15T08:55:35.360Z,49.40
2019-02-15T08:58:04.039Z,49.70
2019-02-15T09:00:32.265Z,49.60
2019-02-15T09:03:03.647Z,49.30
2019-02-15T09:05:32.546Z,48.60
2019-02-15T09:08:00.871Z,48.60
2019-02-15T09:10:29.403Z,48.50
2019-02-15T09:12:59.530Z,46.50
2019-02-15T09:15:27.769Z,45.60
2019-02-15T09:17:56.007Z,46.00
2019-02-15T09:20:24.357Z,47.20
2019-02-15T09:22:52.583Z,47.40
2019-02-15T09:25:21.759Z,46.90
2019-02-15T09:27:51.797Z,47.10
2019-02-15T09:30:20.046Z,46.60
2019-02-15T09:32:48.847Z,46.30
2019-02-15T09:35:18.348Z,46.10
2019-02-15T09:37:46.610Z,45.90
2019-02-15T09:40:14.842Z,45.30
2019-02-15T09:42:46.195Z,43.70
2019-02-15T09:45:14.480Z,41.80
2019-02-15T09:47:42.759Z,42.30
2019-02-15T09:50:12.412Z,41.20
2019-02-15T09:52:41.005Z,41.10
2019-02-15T09:55:09.235Z,40.80
2019-02-15T09:57:38.141Z,41.30
2019-02-15T10:00:10.453Z,42.00
2019-02-15T10:02:38.986Z,41.40
2019-02-15T10:05:08.720Z,40.90
2019-02-15T10:07:37.030Z,39.50
2019-02-15T10:10:09.821Z,39.70
2019-02-15T10:12:38.061Z,39.00
2019-02-15T10:15:09.038Z,39.90
2019-02-15T10:17:42.910Z,39.60
2019-02-15T10:20:11.380Z,39.30
2019-02-15T10:22:40.710Z,39.70
2019-02-15T10:25:10.196Z,38.50
2019-02-15T10:27:38.437Z,38.70
2019-02-15T10:30:09.980Z,38.70
2019-02-15T10:32:38.707Z,40.20
2019-02-15T10:35:09.577Z,40.00
2019-02-15T10:37:38.614Z,40.10
2019-02-15T10:40:11.654Z,38.40
2019-02-15T10:42:40.658Z,38.10
2019-02-15T10:45:19.242Z,38.00
2019-02-15T10:47:47.538Z,37.50
2019-02-15T10:50:15.786Z,35.40
2019-02-15T10:52:44.773Z,35.30
2019-02-15T10:55:13.044Z,35.50
2019-02-15T10:57:41.354Z,35.30
2019-02-15T11:00:18.750Z,35.00
2019-02-15T11:02:48.098Z,35.90
2019-02-15T11:05:17.310Z,35.50
2019-02-15T11:07:45.904Z,33.60
2019-02-15T11:10:14.159Z,32.60
2019-02-15T11:12:42.390Z,33.70
2019-02-15T11:15:16.185Z,34.90
2019-02-15T11:17:44.489Z,34.50
2019-02-15T11:20:20.806Z,34.00
2019-02-15T11:22:49.307Z,33.80
2019-02-15T11:25:17.564Z,33.20
2019-02-15T11:27:45.999Z,34.30
2019-02-15T11:30:15.418Z,33.00
2019-02-15T11:32:43.662Z,32.80
2019-02-15T11:35:19.810Z,33.00
2019-02-15T11:37:48.270Z,31.20
2019-02-15T11:40:16.526Z,32.90
2019-02-15T11:42:44.794Z,32.70
2019-02-15T11:45:15.995Z,31.00
2019-02-15T11:47:44.265Z,31.10
2019-02-15T11:50:13.462Z,30.70
2019-02-15T11:52:41.900Z,32.10
2019-02-15T11:55:10.822Z,33.10
2019-02-15T11:57:39.117Z,33.60
2019-02-15T12:00:15.020Z,31.50
2019-02-15T12:02:43.288Z,30.90
2019-02-15T12:05:11.504Z,30.70
2019-02-15T12:07:39.917Z,29.60
2019-02-15T12:10:10.191Z,29.40
2019-02-15T12:12:38.458Z,31.80
2019-02-15T12:15:08.377Z,31.10
2019-02-15T12:17:41.939Z,30.30
2019-02-15T12:20:17.462Z,30.00
2019-02-15T12:22:46.047Z,30.00
2019-02-15T12:25:14.541Z,31.60
2019-02-15T12:27:42.778Z,30.40
2019-02-15T12:30:15.653Z,31.10
2019-02-15T12:32:43.893Z,31.20
2019-02-15T12:35:12.132Z,31.10
2019-02-15T12:37:40.734Z,30.20
2019-02-15T12:40:10.721Z,29.10
2019-02-15T12:42:39.016Z,30.40
2019-02-15T12:45:10.518Z,30.00
2019-02-15T12:47:39.046Z,31.90
2019-02-15T12:50:10.596Z,31.90
2019-02-15T12:52:38.891Z,30.90
2019-02-15T12:55:07.576Z,31.30
2019-02-15T12:57:36.474Z,31.30
2019-02-15T13:00:10.983Z,30.20
2019-02-15T13:02:40.834Z,30.80
2019-02-15T13:05:11.774Z,30.50
2019-02-15T13:07:40.034Z,30.70
2019-02-15T13:10:11.657Z,31.50
2019-02-15T13:12:43.089Z,31.90
2019-02-15T13:15:12.972Z,32.70
2019-02-15T13:17:41.252Z,31.00
2019-02-15T13:20:10.599Z,30.70
2019-02-15T13:22:38.869Z,29.10
2019-02-15T13:25:08.259Z,29.10
2019-02-15T13:27:41.993Z,30.20
2019-02-15T13:30:12.882Z,30.60
2019-02-15T13:32:41.590Z,31.80
2019-02-15T13:35:18.805Z,32.10
2019-02-15T13:37:47.032Z,30.30
2019-02-15T13:40:15.292Z,30.60
2019-02-15T13:42:44.462Z,31.50
2019-02-15T13:45:13.291Z,31.90
2019-02-15T13:47:41.582Z,31.80
2019-02-15T13:50:12.705Z,31.00
2019-02-15T13:52:43.775Z,31.00
2019-02-15T13:55:12.027Z,30.60
2019-02-15T13:57:43.669Z,32.00
2019-02-15T14:00:13.226Z,33.10
2019-02-15T14:02:41.449Z,33.20
2019-02-15T14:05:11.646Z,33.80
2019-02-15T14:07:43.534Z,33.30
2019-02-15T14:10:13.882Z,33.30
2019-02-15T14:12:46.144Z,33.70
2019-02-15T14:15:14.697Z,33.70
2019-02-15T14:17:45.449Z,33.60
2019-02-15T14:20:14.613Z,34.40
2019-02-15T14:22:47.534Z,34.00
2019-02-15T14:25:14.374Z,34.20
2019-02-15T14:30:24.641Z,33.20
2019-02-15T14:32:52.891Z,33.20
2019-02-15T14:35:23.858Z,34.00
2019-02-15T14:37:54.043Z,33.20
2019-02-15T14:40:22.357Z,33.70
2019-02-15T14:42:52.223Z,33.30
2019-02-15T14:45:23.571Z,33.60
2019-02-15T14:47:54.889Z,33.40
2019-02-15T14:50:21.790Z,33.60
2019-02-15T14:52:52.028Z,33.50
2019-02-15T14:55:20.264Z,33.30
2019-02-15T14:57:50.606Z,33.40
2019-02-15T15:00:19.171Z,33.30
2019-02-15T15:02:47.471Z,33.50
2019-02-15T15:05:15.992Z,33.00
2019-02-15T15:07:44.421Z,34.10
2019-02-15T15:10:12.758Z,33.10
2019-02-15T15:12:41.013Z,33.00
2019-02-15T15:15:12.666Z,34.00
2019-02-15T15:17:40.895Z,33.30
2019-02-15T15:20:10.970Z,33.00
2019-02-15T15:22:39.333Z,33.10
2019-02-15T15:25:11.582Z,32.20
2019-02-15T15:27:40.058Z,32.20
2019-02-15T15:30:10.952Z,32.00
2019-02-15T15:32:39.206Z,32.50
2019-02-15T15:35:09.661Z,32.00
2019-02-15T15:37:41.280Z,32.50
2019-02-15T15:40:16.542Z,32.00
2019-02-15T15:42:45.732Z,32.50
2019-02-15T15:45:16.315Z,32.40
2019-02-15T15:47:46.076Z,32.50
2019-02-15T15:50:14.339Z,32.60
2019-02-15T15:52:44.653Z,32.70
2019-02-15T15:55:14.048Z,32.70
2019-02-15T15:57:43.951Z,32.10
2019-02-15T16:00:15.964Z,32.20
2019-02-15T16:02:44.604Z,32.10
2019-02-15T16:05:12.905Z,32.70
2019-02-15T16:07:43.505Z,32.60
2019-02-15T16:10:13.030Z,33.30
2019-02-15T16:12:41.301Z,33.40
2019-02-15T16:15:16.469Z,35.20
2019-02-15T16:17:45.171Z,33.60
2019-02-15T16:20:14.137Z,34.00
2019-02-15T16:22:44.388Z,33.90
2019-02-15T16:25:12.647Z,34.60
2019-02-15T16:27:43.532Z,34.30
2019-02-15T16:30:13.912Z,34.70
2019-02-15T16:32:42.169Z,34.50
2019-02-15T16:35:10.590Z,34.80
2019-02-15T16:37:39.162Z,35.20
2019-02-15T16:40:13.058Z,35.40
2019-02-15T16:42:41.488Z,35.60
2019-02-15T16:45:14.597Z,36.10
2019-02-15T16:47:43.219Z,36.30
2019-02-15T16:50:11.731Z,36.70
2019-02-15T16:52:40.982Z,36.60
2019-02-15T16:55:13.020Z,36.50
2019-02-15T16:57:39.724Z,36.50
2019-02-15T17:00:12.798Z,37.20
2019-02-15T17:02:42.773Z,37.30
2019-02-15T17:05:11.562Z,37.50
2019-02-15T17:07:39.998Z,37.20
2019-02-15T17:10:10.861Z,37.20
2019-02-15T17:12:39.092Z,37.20
2019-02-15T17:15:13.242Z,37.40
2019-02-15T17:17:41.527Z,37.80
2019-02-15T17:20:10.198Z,38.10
2019-02-15T17:22:38.882Z,38.10
2019-02-15T17:25:12.816Z,38.20
2019-02-15T17:27:41.472Z,38.80
2019-02-15T17:30:10.981Z,39.20
2019-02-15T17:32:39.263Z,39.30
2019-02-15T17:35:09.732Z,39.60
2019-02-15T17:37:38.973Z,39.50
2019-02-15T17:40:15.049Z,39.70
2019-02-15T17:42:43.331Z,39.70
2019-02-15T17:45:14.339Z,40.00
2019-02-15T17:47:43.765Z,40.40
2019-02-15T17:50:12.368Z,40.30
2019-02-15T17:52:40.958Z,40.00
2019-02-15T17:55:10.040Z,40.60
2019-02-15T17:57:41.502Z,40.80
2019-02-15T18:00:16.866Z,40.70
2019-02-15T18:02:52.725Z,40.60
2019-02-15T18:05:21.714Z,41.10
2019-02-15T18:07:50.770Z,41.00
2019-02-15T18:10:19.094Z,40.90
2019-02-15T18:12:47.326Z,41.30
2019-02-15T18:15:17.138Z,41.50
2019-02-15T18:17:45.567Z,41.30
2019-02-15T18:20:13.867Z,41.30
2019-02-15T18:22:43.577Z,41.80
2019-02-15T18:25:12.497Z,42.10
2019-02-15T18:27:40.784Z,42.20
2019-02-15T18:30:11.911Z,42.20
2019-02-15T18:32:40.228Z,41.90
2019-02-15T18:35:09.722Z,42.30
2019-02-15T18:37:38.233Z,42.60
2019-02-15T18:40:10.510Z,42.90
2019-02-15T18:42:39.177Z,42.90
2019-02-15T18:45:13.088Z,42.40
2019-02-15T18:47:41.641Z,42.50
2019-02-15T18:50:10.261Z,42.70
2019-02-15T18:52:38.552Z,42.70
2019-02-15T18:55:09.430Z,42.90
2019-02-15T18:57:37.672Z,43.60
2019-02-15T19:00:15.670Z,43.30
2019-02-15T19:02:46.146Z,43.50
2019-02-15T19:05:14.463Z,43.30
2019-02-15T19:07:42.975Z,43.70
2019-02-15T19:10:17.528Z,43.60
2019-02-15T19:12:46.114Z,45.00
2019-02-15T19:15:16.328Z,44.50
2019-02-15T19:17:44.579Z,43.80
2019-02-15T19:20:16.762Z,43.80
2019-02-15T19:22:45.176Z,44.20
2019-02-15T19:25:15.224Z,44.80
2019-02-15T19:27:43.657Z,44.30
2019-02-15T19:30:18.069Z,44.10
2019-02-15T19:32:46.731Z,44.40
2019-02-15T19:35:15.004Z,44.70
2019-02-15T19:37:43.337Z,45.00
2019-02-15T19:40:14.566Z,45.20
2019-02-15T19:42:48.062Z,45.20
2019-02-15T19:45:19.230Z,45.30
2019-02-15T19:47:47.483Z,45.40
2019-02-15T19:50:20.636Z,45.30
2019-02-15T19:52:49.517Z,44.80
2019-02-15T19:55:18.092Z,44.70
2019-02-15T19:57:46.447Z,45.00
2019-02-15T20:00:19.405Z,45.20
2019-02-15T20:02:47.690Z,45.70
2019-02-15T20:05:15.964Z,46.10
2019-02-15T20:07:44.770Z,45.60
2019-02-15T20:10:15.321Z,45.60
2019-02-15T20:12:43.974Z,45.90
2019-02-15T20:15:13.950Z,46.20
2019-02-15T20:17:42.301Z,46.80
2019-02-15T20:20:18.463Z,46.50
2019-02-15T20:22:46.810Z,46.60
2019-02-15T20:25:15.160Z,46.40
2019-02-15T20:27:47.214Z,46.70
2019-02-15T20:30:21.482Z,46.30
2019-02-15T20:32:50.091Z,46.40
2019-02-15T20:35:19.625Z,46.50
2019-02-15T20:37:48.146Z,47.10
2019-02-15T20:40:17.403Z,46.80
2019-02-15T20:42:45.654Z,47.50
2019-02-15T20:45:20.352Z,47.40
2019-02-15T20:47:48.642Z,47.20
2019-02-15T20:50:17.881Z,47.60
2019-02-15T20:52:46.531Z,47.10
2019-02-15T20:55:16.630Z,47.30
2019-02-15T20:57:44.890Z,47.40
2019-02-15T21:00:26.907Z,47.80
2019-02-15T21:02:55.177Z,47.60
2019-02-15T21:05:23.552Z,48.00
2019-02-15T21:07:52.123Z,47.90
2019-02-15T21:10:20.394Z,48.00
2019-02-15T21:12:48.734Z,48.40
2019-02-15T21:15:17.585Z,48.30
2019-02-15T21:17:49.383Z,48.70
2019-02-15T21:20:18.483Z,48.80
2019-02-15T21:22:46.778Z,49.10
2019-02-15T21:25:16.961Z,49.10
2019-02-15T21:27:46.480Z,49.30
2019-02-15T21:30:17.110Z,49.30
2019-02-15T21:32:45.399Z,49.70
2019-02-15T21:35:15.505Z,49.80
2019-02-15T21:37:43.727Z,50.30
2019-02-15T21:40:14.876Z,50.00
2019-02-15T21:42:43.873Z,50.00
2019-02-15T21:45:13.202Z,50.20
2019-02-15T21:47:41.516Z,50.70
2019-02-15T21:50:17.224Z,51.30
2019-02-15T21:52:44.145Z,51.10
2019-02-15T21:55:13.801Z,51.50
2019-02-15T21:57:44.022Z,51.60
2019-02-15T22:00:23.454Z,52.00
2019-02-15T22:02:51.891Z,52.00
2019-02-15T22:05:20.277Z,51.50
2019-02-15T22:07:49.138Z,51.70
2019-02-15T22:10:17.552Z,52.20
2019-02-15T22:12:45.802Z,52.80
2019-02-15T22:15:16.017Z,52.40
2019-02-15T22:17:44.256Z,52.70
2019-02-15T22:20:15.923Z,53.00
2019-02-15T22:22:44.364Z,53.10
2019-02-15T22:25:12.636Z,53.20
2019-02-15T22:27:40.890Z,53.10
2019-02-15T22:30:12.623Z,53.20
2019-02-15T22:32:42.594Z,53.40
2019-02-15T22:35:11.058Z,53.20
2019-02-15T22:37:39.694Z,53.50
2019-02-15T22:40:27.643Z,53.60
2019-02-15T22:42:58.014Z,53.60
2019-02-15T22:45:26.248Z,53.90
2019-02-15T22:47:54.676Z,53.80
2019-02-15T22:50:23.096Z,54.20
2019-02-15T22:52:51.353Z,54.60
2019-02-15T22:55:19.577Z,54.40
2019-02-15T22:57:48.133Z,55.20
2019-02-15T23:03:29.737Z,54.60
2019-02-15T23:05:58.103Z,55.00
2019-02-15T23:08:26.391Z,55.00
2019-02-15T23:10:54.882Z,54.80
2019-02-15T23:13:23.110Z,55.00
2019-02-15T23:15:51.360Z,55.40
2019-02-15T23:18:19.830Z,55.00
2019-02-15T23:20:48.562Z,55.30
2019-02-15T23:23:16.855Z,55.20
2019-02-15T23:25:45.206Z,55.20
2019-02-15T23:28:13.470Z,56.00
2019-02-15T23:30:41.724Z,56.30
2019-02-15T23:33:10.226Z,55.50
2019-02-15T23:35:39.285Z,55.50
2019-02-15T23:38:07.589Z,55.40
2019-02-15T23:40:35.934Z,55.70
2019-02-15T23:43:04.261Z,55.70
2019-02-15T23:45:32.480Z,55.90
2019-02-15T23:48:00.815Z,56.10
2019-02-15T23:50:29.051Z,56.20
2019-02-15T23:52:57.332Z,56.20
2019-02-15T23:55:25.775Z,56.10
2019-02-15T23:57:54.012Z,56.50
